createdAt,value
2023-04-06T00:00:36.008Z,7.88
2023-04-06T00:05:37.576Z,7.43
2023-04-06T00:10:39.226Z,7.35
2023-04-06T00:15:40.782Z,7.47
2023-04-06T00:20:42.376Z,7.55
2023-04-06T00:25:43.955Z,7.38
2023-04-06T00:30:45.471Z,7.07
2023-04-06T00:35:47.046Z,7.28
2023-04-06T00:40:48.703Z,6.80
2023-04-06T00:45:50.470Z,6.47
2023-04-06T00:50:52.169Z,7.30
2023-04-06T00:55:53.814Z,6.95
2023-04-06T01:00:57.764Z,6.50
2023-04-06T01:05:59.939Z,7.15
2023-04-06T01:11:09.477Z,7.20
2023-04-06T01:16:12.309Z,6.38
2023-04-06T01:21:38.562Z,6.75
2023-04-06T01:27:15.710Z,5.90
2023-04-06T01:32:23.439Z,6.78
2023-04-06T01:37:27.445Z,7.53
2023-04-06T01:42:32.275Z,6.93
2023-04-06T01:47:34.590Z,6.22
2023-04-06T01:52:36.560Z,6.05
2023-04-06T01:57:38.565Z,7.10
2023-04-06T02:02:49.057Z,7.10
2023-04-06T02:07:57.021Z,6.20
2023-04-06T02:13:06.578Z,6.88
2023-04-06T02:18:09.668Z,6.93
2023-04-06T02:23:12.492Z,6.97
2023-04-06T02:28:15.112Z,7.45
2023-04-06T02:33:16.951Z,7.13
2023-04-06T02:38:21.463Z,6.70
2023-04-06T02:43:23.609Z,6.80
2023-04-06T02:48:30.446Z,7.40
2023-04-06T02:53:32.515Z,7.60
2023-04-06T02:58:35.288Z,7.88
2023-04-06T03:03:37.574Z,7.45
2023-04-06T03:08:45.936Z,8.30
2023-04-06T03:13:48.697Z,7.38
2023-04-06T03:18:50.614Z,6.75
2023-04-06T03:23:53.348Z,7.18
2023-04-06T03:28:55.017Z,6.72
2023-04-06T03:39:07.510Z,8.90
2023-04-06T03:44:13.816Z,7.32
2023-04-06T03:49:15.745Z,7.60
2023-04-06T03:54:21.608Z,8.03
2023-04-06T03:59:23.491Z,8.70
2023-04-06T04:04:28.387Z,8.07
2023-04-06T04:09:30.019Z,7.70
2023-04-06T04:14:32.521Z,8.80
2023-04-06T04:19:34.706Z,9.02
2023-04-06T04:24:37.179Z,8.05
2023-04-06T04:29:39.037Z,8.07
2023-04-06T04:34:44.264Z,7.30
2023-04-06T04:39:54.333Z,7.45
2023-04-06T04:44:56.020Z,7.45
2023-04-06T04:50:08.983Z,7.28
2023-04-06T04:55:14.905Z,8.67
2023-04-06T05:00:19.504Z,6.68
2023-04-06T05:05:21.437Z,7.60
2023-04-06T05:10:25.016Z,6.65
2023-04-06T05:20:40.576Z,6.18
2023-04-06T05:25:43.742Z,7.47
2023-04-06T05:30:54.048Z,6.88
2023-04-06T05:35:56.937Z,7.35
2023-04-06T05:40:59.016Z,6.47
2023-04-06T05:46:05.337Z,5.63
2023-04-06T05:51:07.029Z,5.30
2023-04-06T05:56:17.773Z,5.65
2023-04-06T06:01:20.291Z,5.57
2023-04-06T06:06:23.095Z,5.53
2023-04-06T06:11:40.037Z,5.03
2023-04-06T06:16:42.460Z,5.82
2023-04-06T06:21:47.266Z,5.40
2023-04-06T06:26:50.274Z,5.72
2023-04-06T06:31:54.082Z,6.32
2023-04-06T06:36:56.220Z,5.90
2023-04-06T06:41:58.208Z,6.15
2023-04-06T06:47:19.000Z,6.53
2023-04-06T06:52:20.720Z,5.78
2023-04-06T06:57:22.389Z,5.65
2023-04-06T07:02:25.119Z,6.47
2023-04-06T07:07:27.226Z,5.90
2023-04-06T07:12:29.044Z,6.20
2023-04-06T07:17:30.707Z,6.22
2023-04-06T07:22:32.627Z,5.63
2023-04-06T07:27:34.496Z,6.10
2023-04-06T07:32:37.542Z,6.32
2023-04-06T07:37:39.620Z,6.65
2023-04-06T07:42:41.360Z,5.68
2023-04-06T07:47:43.699Z,6.55
2023-04-06T07:52:45.394Z,7.32
2023-04-06T07:57:47.239Z,6.68
2023-04-06T08:02:49.084Z,6.80
2023-04-06T08:07:51.182Z,6.50
2023-04-06T08:12:53.443Z,7.25
2023-04-06T08:17:55.070Z,7.40
2023-04-06T08:22:56.662Z,7.18
2023-04-06T08:27:58.415Z,7.53
2023-04-06T08:33:00.053Z,6.55
2023-04-06T08:38:01.793Z,7.70
2023-04-06T08:43:06.575Z,8.55
2023-04-06T08:48:09.285Z,7.22
2023-04-06T08:53:12.895Z,7.53
2023-04-06T08:58:24.062Z,8.02
2023-04-06T09:03:38.287Z,8.60
2023-04-06T09:08:41.931Z,7.57
2023-04-06T09:13:47.438Z,7.32
2023-04-06T09:18:50.571Z,7.47
2023-04-06T09:24:02.926Z,7.95
2023-04-06T09:29:04.723Z,8.02
2023-04-06T09:34:06.825Z,7.25
2023-04-06T09:39:08.752Z,7.30
2023-04-06T09:44:13.716Z,7.55
2023-04-06T09:49:15.390Z,8.02
2023-04-06T09:54:20.675Z,7.97
2023-04-06T09:59:45.146Z,8.93
2023-04-06T10:05:24.226Z,7.50
2023-04-06T10:10:26.654Z,8.48
2023-04-06T10:15:30.031Z,8.85
2023-04-06T10:20:40.981Z,8.98
2023-04-06T10:25:57.278Z,7.97
2023-04-06T10:31:01.091Z,9.57
2023-04-06T10:36:16.716Z,8.88
2023-04-06T10:41:18.510Z,8.40
2023-04-06T10:46:32.531Z,9.15
2023-04-06T10:51:38.793Z,9.40
2023-04-06T10:56:40.502Z,9.45
2023-04-06T11:01:45.806Z,9.07
2023-04-06T11:06:49.125Z,9.30
2023-04-06T11:11:50.846Z,8.82
2023-04-06T11:16:54.915Z,9.23
2023-04-06T11:21:59.408Z,9.73
2023-04-06T11:27:01.537Z,9.38
2023-04-06T11:32:04.960Z,8.85
2023-04-06T11:37:11.560Z,9.93
2023-04-06T11:42:13.304Z,8.98
2023-04-06T11:47:15.123Z,9.68
2023-04-06T11:52:28.418Z,9.57
2023-04-06T11:57:30.200Z,8.82
2023-04-06T12:02:32.040Z,9.40
2023-04-06T12:07:34.102Z,7.95
2023-04-06T12:12:35.974Z,6.80
2023-04-06T12:17:37.622Z,7.03
2023-04-06T12:22:39.677Z,7.43
2023-04-06T12:27:41.409Z,7.50
2023-04-06T12:32:43.069Z,7.50
2023-04-06T12:37:44.953Z,7.32
2023-04-06T12:42:47.194Z,6.28
2023-04-06T12:47:49.123Z,7.25
2023-04-06T12:52:50.855Z,5.88
2023-04-06T12:57:52.541Z,6.13
2023-04-06T13:02:54.241Z,6.03
2023-04-06T13:07:56.026Z,6.35
2023-04-06T13:12:57.962Z,5.32
2023-04-06T13:17:59.628Z,5.38
2023-04-06T13:23:01.525Z,7.05
2023-04-06T13:28:03.430Z,5.93
2023-04-06T13:33:05.325Z,7.38
2023-04-06T13:38:07.275Z,6.55
2023-04-06T13:43:09.299Z,6.60
2023-04-06T13:48:11.653Z,5.68
2023-04-06T13:53:14.018Z,4.95
2023-04-06T13:58:15.646Z,5.90
2023-04-06T14:03:17.421Z,7.05
2023-04-06T14:08:19.035Z,6.53
2023-04-06T14:13:21.120Z,6.75
2023-04-06T14:18:23.245Z,5.43
2023-04-06T14:23:24.951Z,4.88
2023-04-06T14:28:26.577Z,4.55
2023-04-06T14:33:28.453Z,5.18
2023-04-06T14:38:30.005Z,4.70
2023-04-06T14:43:31.626Z,6.35
2023-04-06T14:48:33.460Z,4.97
2023-04-06T14:53:35.351Z,5.22
2023-04-06T14:58:37.152Z,4.47
2023-04-06T15:03:38.831Z,5.28
2023-04-06T15:08:40.710Z,5.07
2023-04-06T15:13:43.771Z,4.60
2023-04-06T15:18:45.499Z,4.60
2023-04-06T15:23:47.463Z,5.03
2023-04-06T15:28:49.466Z,4.40
2023-04-06T15:33:51.110Z,4.70
2023-04-06T15:38:53.353Z,5.68
2023-04-06T15:43:55.496Z,6.30
2023-04-06T15:48:57.610Z,10.05
2023-04-06T15:53:59.203Z,6.15
2023-04-06T15:59:00.872Z,7.88
2023-04-06T16:04:03.200Z,16.73
2023-04-06T16:09:05.054Z,9.60
2023-04-06T16:14:06.661Z,6.78
2023-04-06T16:19:08.250Z,6.85
2023-04-06T16:24:09.993Z,6.47
2023-04-06T16:29:11.891Z,6.60
2023-04-06T16:34:14.290Z,5.75
2023-04-06T16:39:16.101Z,5.70
2023-04-06T16:44:17.939Z,6.55
2023-04-06T16:49:19.665Z,7.30
2023-04-06T16:54:21.420Z,6.68
2023-04-06T16:59:22.961Z,5.97
2023-04-06T17:04:24.771Z,6.35
2023-04-06T17:09:26.358Z,7.88
2023-04-06T17:14:28.111Z,7.65
2023-04-06T17:19:30.016Z,7.85
2023-04-06T17:24:31.836Z,8.25
2023-04-06T17:29:35.902Z,8.18
2023-04-06T17:34:37.470Z,8.75
2023-04-06T17:39:39.282Z,10.18
2023-04-06T17:44:41.180Z,9.45
2023-04-06T17:49:43.034Z,10.45
2023-04-06T17:54:44.649Z,9.93
2023-04-06T17:59:46.326Z,10.77
2023-04-06T18:04:55.186Z,9.70
2023-04-06T18:09:57.187Z,12.23
2023-04-06T18:14:58.843Z,10.15
2023-04-06T18:20:00.543Z,9.68
2023-04-06T18:25:03.815Z,10.10
2023-04-06T18:30:06.037Z,10.57
2023-04-06T18:35:08.465Z,10.52
2023-04-06T18:40:31.706Z,10.65
2023-04-06T18:45:34.595Z,10.77
2023-04-06T18:50:36.283Z,11.23
2023-04-06T18:55:37.838Z,12.32
2023-04-06T19:00:42.758Z,11.45
2023-04-06T19:05:44.426Z,11.50
2023-04-06T19:10:45.919Z,11.50
2023-04-06T19:15:47.434Z,12.27
2023-04-06T19:20:48.981Z,13.05
2023-04-06T19:25:50.641Z,13.25
2023-04-06T19:30:52.323Z,12.52
2023-04-06T19:35:53.955Z,12.05
2023-04-06T19:40:55.562Z,10.43
2023-04-06T19:45:57.269Z,11.15
2023-04-06T19:50:58.827Z,12.43
2023-04-06T19:56:00.391Z,10.15
2023-04-06T20:01:02.438Z,10.95
2023-04-06T20:06:04.200Z,11.68
2023-04-06T20:11:06.178Z,11.30
2023-04-06T20:16:08.025Z,10.40
2023-04-06T20:21:10.273Z,10.65
2023-04-06T20:26:12.050Z,10.00
2023-04-06T20:31:13.753Z,10.32
2023-04-06T20:36:15.318Z,10.65
2023-04-06T20:41:16.873Z,10.85
2023-04-06T20:46:18.770Z,10.50
2023-04-06T20:51:21.667Z,9.98
2023-04-06T20:56:23.420Z,9.30
2023-04-06T21:01:24.992Z,10.50
2023-04-06T21:06:27.470Z,10.18
2023-04-06T21:11:29.095Z,9.88
2023-04-06T21:16:30.744Z,9.98
2023-04-06T21:21:32.358Z,10.02
2023-04-06T21:26:35.017Z,10.00
2023-04-06T21:31:36.851Z,10.70
2023-04-06T21:36:39.824Z,9.80
2023-04-06T21:41:41.514Z,9.63
2023-04-06T21:46:43.718Z,11.15
2023-04-06T21:51:45.973Z,11.27
2023-04-06T21:56:48.183Z,11.75
2023-04-06T22:01:50.078Z,12.52
2023-04-06T22:06:51.669Z,13.05
2023-04-06T22:11:53.799Z,14.40
2023-04-06T22:16:55.451Z,13.05
2023-04-06T22:21:57.715Z,14.25
2023-04-06T22:26:59.543Z,15.23
2023-04-06T22:32:01.260Z,14.23
2023-04-06T22:37:03.362Z,14.68
2023-04-06T22:42:05.096Z,14.50
2023-04-06T22:47:06.800Z,15.45
2023-04-06T22:52:12.138Z,13.85
2023-04-06T22:57:13.965Z,14.38
2023-04-06T23:02:15.529Z,14.25
2023-04-06T23:07:17.550Z,15.00
2023-04-06T23:12:19.238Z,14.38
2023-04-06T23:17:20.955Z,14.90
2023-04-06T23:22:22.981Z,15.63
2023-04-06T23:27:24.569Z,15.13
2023-04-06T23:32:26.245Z,13.88
2023-04-06T23:37:27.889Z,13.73
2023-04-06T23:42:29.519Z,15.73
2023-04-06T23:47:31.609Z,15.35
2023-04-06T23:52:33.553Z,14.80
2023-04-06T23:57:35.218Z,15.63
